createdAt,value
2023-01-13T00:00:19.071Z,10.7
2023-01-13T00:05:25.130Z,10.7
2023-01-13T00:10:31.219Z,10.6
2023-01-13T00:15:37.316Z,10.6
2023-01-13T00:20:43.434Z,10.6
2023-01-13T00:25:49.501Z,10.6
2023-01-13T00:30:55.616Z,10.5
2023-01-13T00:36:01.695Z,10.5
2023-01-13T00:41:07.784Z,10.6
2023-01-13T00:46:13.892Z,10.6
2023-01-13T00:51:19.972Z,10.6
2023-01-13T00:56:26.081Z,10.6
2023-01-13T01:01:32.181Z,10.5
2023-01-13T01:06:37.279Z,10.5
2023-01-13T01:11:43.382Z,10.5
2023-01-13T01:16:49.543Z,10.5
2023-01-13T01:21:55.580Z,10.6
2023-01-13T01:27:01.680Z,10.6
2023-01-13T01:32:07.788Z,10.7
2023-01-13T01:37:13.861Z,10.7
2023-01-13T01:42:19.941Z,10.6
2023-01-13T01:47:26.070Z,10.7
2023-01-13T01:52:32.148Z,10.8
2023-01-13T01:57:38.259Z,10.8
2023-01-13T02:02:44.332Z,10.8
2023-01-13T02:07:50.433Z,10.8
2023-01-13T02:12:55.589Z,10.8
2023-01-13T02:18:01.637Z,10.8
2023-01-13T02:23:07.737Z,10.8
2023-01-13T02:28:13.910Z,10.8
2023-01-13T02:33:19.900Z,10.8
2023-01-13T02:38:26.021Z,10.9
2023-01-13T02:43:32.114Z,10.9
2023-01-13T02:48:38.198Z,10.9
2023-01-13T02:53:44.305Z,10.9
2023-01-13T02:58:50.388Z,10.9
2023-01-13T03:03:56.585Z,10.9
2023-01-13T03:09:02.592Z,10.9
2023-01-13T03:14:08.686Z,10.9
2023-01-13T03:19:13.793Z,10.8
2023-01-13T03:24:19.884Z,10.9
2023-01-13T03:29:25.981Z,10.9
2023-01-13T03:34:32.069Z,10.9
2023-01-13T03:39:38.169Z,10.9
2023-01-13T03:44:44.277Z,10.9
2023-01-13T03:49:50.360Z,10.9
2023-01-13T03:54:56.474Z,11
2023-01-13T04:00:02.585Z,11
2023-01-13T04:05:08.654Z,11
2023-01-13T04:10:14.732Z,11
2023-01-13T04:15:20.831Z,11
2023-01-13T04:20:26.934Z,11.1
2023-01-13T04:25:32.054Z,11.1
2023-01-13T04:30:38.134Z,11
2023-01-13T04:35:44.230Z,11
2023-01-13T04:40:50.330Z,10.9
2023-01-13T04:45:56.433Z,10.9
2023-01-13T04:51:02.509Z,11
2023-01-13T04:56:08.676Z,10.9
2023-01-13T05:01:14.707Z,10.9
2023-01-13T05:06:20.815Z,10.9
2023-01-13T05:11:26.909Z,11
2023-01-13T05:16:32.979Z,11
2023-01-13T05:21:39.151Z,11
2023-01-13T05:26:45.187Z,11
2023-01-13T05:31:50.312Z,11
2023-01-13T05:36:56.412Z,11.1
2023-01-13T05:42:02.539Z,11.1
2023-01-13T05:47:08.593Z,11.1
2023-01-13T05:52:14.668Z,11.1
2023-01-13T05:57:19.793Z,11.1
2023-01-13T06:02:25.896Z,11.1
2023-01-13T06:07:31.979Z,11
2023-01-13T06:12:38.088Z,9.8
2023-01-13T06:17:44.167Z,9
2023-01-13T06:22:50.274Z,8.8
2023-01-13T06:27:56.380Z,8.7
2023-01-13T06:33:02.459Z,8.5
2023-01-13T06:38:08.568Z,8.4
2023-01-13T06:43:14.654Z,8.3
2023-01-13T06:48:20.744Z,8.3
2023-01-13T06:53:26.861Z,8.3
2023-01-13T06:58:32.955Z,8.2
2023-01-13T07:03:38.114Z,8.2
2023-01-13T07:08:44.160Z,8.3
2023-01-13T07:13:50.233Z,8.4
2023-01-13T07:18:56.350Z,8.4
2023-01-13T07:24:02.514Z,8.4
2023-01-13T07:29:08.555Z,8.4
2023-01-13T07:34:14.638Z,8.5
2023-01-13T07:39:20.736Z,8.6
2023-01-13T07:44:26.901Z,8.6
2023-01-13T07:49:32.909Z,8.5
2023-01-13T07:54:39.030Z,8.3
2023-01-13T07:59:45.110Z,8.2
2023-01-13T08:04:51.277Z,8.2
2023-01-13T08:09:56.331Z,8.2
2023-01-13T08:15:02.464Z,8.3
2023-01-13T08:20:08.639Z,8.3
2023-01-13T08:25:14.602Z,8.2
2023-01-13T08:30:20.710Z,8.2
2023-01-13T08:35:26.822Z,8.3
2023-01-13T08:40:32.901Z,8.3
2023-01-13T08:45:39.012Z,8.2
2023-01-13T08:50:45.255Z,8.2
2023-01-13T08:55:51.192Z,8.2
2023-01-13T09:00:57.299Z,8.1
2023-01-13T09:06:03.420Z,8.1
2023-01-13T09:11:09.484Z,8.1
2023-01-13T09:16:14.597Z,8.1
2023-01-13T09:21:21.743Z,8.1
2023-01-13T09:26:26.777Z,8.2
2023-01-13T09:31:32.885Z,8.2
2023-01-13T09:36:38.969Z,8.3
2023-01-13T09:41:45.061Z,8.4
2023-01-13T09:46:51.158Z,8.6
2023-01-13T09:51:57.263Z,8.6
2023-01-13T09:57:03.350Z,8.4
2023-01-13T10:02:09.456Z,8.3
2023-01-13T10:07:15.560Z,8.6
2023-01-13T10:12:21.647Z,8.8
2023-01-13T10:17:27.746Z,8.9
2023-01-13T10:22:32.856Z,9.1
2023-01-13T10:27:38.954Z,9.2
2023-01-13T10:32:45.048Z,9.4
2023-01-13T10:37:51.156Z,9.5
2023-01-13T10:42:57.278Z,9.5
2023-01-13T10:48:03.321Z,9.7
2023-01-13T10:53:09.467Z,9.6
2023-01-13T10:58:15.577Z,9.7
2023-01-13T11:03:21.612Z,9.8
2023-01-13T11:08:27.717Z,9.9
2023-01-13T11:13:33.847Z,10.2
2023-01-13T11:18:39.905Z,10.1
2023-01-13T11:23:45.995Z,10.1
2023-01-13T11:28:51.102Z,10.1
2023-01-13T11:33:57.195Z,10.1
2023-01-13T11:39:03.384Z,10.3
2023-01-13T11:44:09.408Z,10.4
2023-01-13T11:49:15.492Z,10.5
2023-01-13T11:54:21.593Z,10.5
2023-01-13T11:59:27.679Z,10.4
2023-01-13T12:04:33.772Z,10.3
2023-01-13T12:09:39.881Z,10.2
2023-01-13T12:14:45.970Z,10.3
2023-01-13T12:19:52.076Z,10.2
2023-01-13T12:24:58.152Z,10.1
2023-01-13T12:30:04.243Z,10
2023-01-13T12:35:09.370Z,9.4
2023-01-13T12:40:15.455Z,9.2
2023-01-13T12:45:21.554Z,8.6
2023-01-13T12:50:27.660Z,7.8
2023-01-13T12:55:33.898Z,7.6
2023-01-13T13:00:39.916Z,7.4
2023-01-13T13:05:45.962Z,7.4
2023-01-13T13:10:52.060Z,7.5
2023-01-13T13:15:58.287Z,7.7
2023-01-13T13:21:04.223Z,8.2
2023-01-13T13:26:10.327Z,8.3
2023-01-13T13:31:16.421Z,8.8
2023-01-13T13:36:22.509Z,9.2
2023-01-13T13:41:27.651Z,9.4
2023-01-13T13:46:33.715Z,9.6
2023-01-13T13:51:39.844Z,9.5
2023-01-13T13:56:45.922Z,9.8
2023-01-13T14:01:52.001Z,9.7
2023-01-13T14:06:58.114Z,10.6
2023-01-13T14:12:04.170Z,9.9
2023-01-13T14:17:10.246Z,9.8
2023-01-13T14:22:16.346Z,10.6
2023-01-13T14:27:22.432Z,10.8
2023-01-13T14:32:28.548Z,10
2023-01-13T14:37:34.606Z,9.8
2023-01-13T14:42:40.708Z,10.1
2023-01-13T14:47:45.812Z,10.9
2023-01-13T14:52:51.913Z,10.5
2023-01-13T14:57:58.108Z,10.4
2023-01-13T15:03:04.163Z,9.7
2023-01-13T15:08:10.225Z,9.4
2023-01-13T15:13:16.290Z,9.2
2023-01-13T15:18:22.378Z,9.1
2023-01-13T15:23:28.484Z,9
2023-01-13T15:28:34.580Z,9
2023-01-13T15:33:40.661Z,9
2023-01-13T15:38:46.762Z,9
2023-01-13T15:43:52.866Z,9
2023-01-13T15:48:58.967Z,9
2023-01-13T15:54:04.076Z,9.1
2023-01-13T15:59:10.161Z,9.2
2023-01-13T16:04:16.258Z,9.1
2023-01-13T16:09:22.379Z,9.1
2023-01-13T16:14:28.451Z,9
2023-01-13T16:19:34.562Z,9
2023-01-13T16:24:40.657Z,9
2023-01-13T16:29:46.763Z,9
2023-01-13T16:34:52.926Z,9
2023-01-13T16:39:59.000Z,9
2023-01-13T16:45:05.076Z,8.9
2023-01-13T16:50:11.178Z,9
2023-01-13T16:55:17.292Z,8.9
2023-01-13T17:00:22.464Z,8.9
2023-01-13T17:05:28.499Z,9
2023-01-13T17:10:34.603Z,8.9
2023-01-13T17:15:40.695Z,8.8
2023-01-13T17:20:46.784Z,8.7
2023-01-13T17:25:52.886Z,8.7
2023-01-13T17:30:58.992Z,8.6
2023-01-13T17:36:05.086Z,8.6
2023-01-13T17:41:11.181Z,8.5
2023-01-13T17:46:17.280Z,8.3
2023-01-13T17:51:23.363Z,8.3
2023-01-13T17:56:29.468Z,8.2
2023-01-13T18:01:35.544Z,8.4
2023-01-13T18:06:40.667Z,8.3
2023-01-13T18:11:46.768Z,8.2
2023-01-13T18:16:52.860Z,8.1
2023-01-13T18:21:58.955Z,8
2023-01-13T18:27:05.055Z,8
2023-01-13T18:32:11.141Z,8.1
2023-01-13T18:37:17.236Z,8
2023-01-13T18:42:23.333Z,7.9
2023-01-13T18:47:29.477Z,8.1
2023-01-13T18:52:35.523Z,8
2023-01-13T18:57:41.707Z,8.1
2023-01-13T19:02:47.852Z,8.1
2023-01-13T19:07:53.821Z,8.1
2023-01-13T19:12:58.927Z,8.1
2023-01-13T19:18:05.027Z,8
2023-01-13T19:23:11.124Z,8.1
2023-01-13T19:28:17.208Z,8.1
2023-01-13T19:33:23.312Z,8.1
2023-01-13T19:38:29.410Z,8
2023-01-13T19:43:35.511Z,8.1
2023-01-13T19:48:41.604Z,8.2
2023-01-13T19:53:47.703Z,8.2
2023-01-13T19:58:53.789Z,8.2
2023-01-13T20:03:59.886Z,8.2
2023-01-13T20:09:05.991Z,8.2
2023-01-13T20:14:12.090Z,8.2
2023-01-13T20:19:17.194Z,8.1
2023-01-13T20:24:23.289Z,8.1
2023-01-13T20:29:29.388Z,8
2023-01-13T20:34:35.487Z,8.1
2023-01-13T20:39:41.578Z,8.1
2023-01-13T20:44:47.677Z,8
2023-01-13T20:49:53.769Z,8
2023-01-13T20:54:59.868Z,8
2023-01-13T21:00:05.972Z,7.8
2023-01-13T21:05:12.055Z,7.7
2023-01-13T21:10:18.153Z,7.6
2023-01-13T21:15:24.283Z,7.4
2023-01-13T21:20:30.343Z,7.3
2023-01-13T21:25:35.447Z,7.3
2023-01-13T21:30:41.566Z,7.4
2023-01-13T21:35:47.651Z,7.2
2023-01-13T21:40:53.755Z,7.2
2023-01-13T21:45:59.864Z,7.2
2023-01-13T21:51:05.942Z,7.2
2023-01-13T21:56:12.051Z,7.3
2023-01-13T22:01:18.139Z,7.5
2023-01-13T22:06:24.243Z,7.4
2023-01-13T22:11:30.328Z,7.4
2023-01-13T22:16:36.437Z,7.4
2023-01-13T22:21:42.520Z,7.2
2023-01-13T22:26:48.602Z,7.2
2023-01-13T22:31:53.721Z,7.3
2023-01-13T22:36:59.818Z,7.1
2023-01-13T22:42:05.926Z,7.3
2023-01-13T22:47:12.031Z,7
2023-01-13T22:52:18.120Z,7.1
2023-01-13T22:57:24.253Z,7.1
2023-01-13T23:02:29.318Z,6.9
2023-01-13T23:07:35.427Z,6.9
2023-01-13T23:12:41.579Z,7
2023-01-13T23:17:47.617Z,7
2023-01-13T23:22:53.711Z,7.2
2023-01-13T23:27:59.922Z,7.3
2023-01-13T23:33:05.923Z,7.2
2023-01-13T23:38:12.003Z,7.2
2023-01-13T23:43:18.100Z,7.2
2023-01-13T23:48:24.198Z,7.2
2023-01-13T23:53:30.289Z,7.3
2023-01-13T23:58:36.386Z,7.4
